createdAt,value
2019-01-24T00:00:34.081Z,30.70
2019-01-24T00:03:37.353Z,30.70
2019-01-24T00:06:40.613Z,30.80
2019-01-24T00:09:43.865Z,30.70
2019-01-24T00:12:53.777Z,30.60
2019-01-24T00:15:57.035Z,30.50
2019-01-24T00:19:00.305Z,30.60
2019-01-24T00:22:05.479Z,30.70
2019-01-24T00:25:10.026Z,30.70
2019-01-24T00:28:14.220Z,30.70
2019-01-24T00:31:17.470Z,30.70
2019-01-24T00:34:23.326Z,30.60
2019-01-24T00:37:25.719Z,30.70
2019-01-24T00:40:28.987Z,30.70
2019-01-24T00:43:32.245Z,30.70
2019-01-24T00:46:35.501Z,30.70
2019-01-24T00:49:39.744Z,30.80
2019-01-24T00:52:43.002Z,30.60
2019-01-24T00:55:46.253Z,30.70
2019-01-24T00:58:50.434Z,30.70
2019-01-24T01:01:53.696Z,30.70
2019-01-24T01:04:57.858Z,30.60
2019-01-24T01:08:02.065Z,30.70
2019-01-24T01:11:06.290Z,30.60
2019-01-24T01:14:09.553Z,30.60
2019-01-24T01:17:13.422Z,30.60
2019-01-24T01:20:19.474Z,30.60
2019-01-24T01:23:22.738Z,30.60
2019-01-24T01:26:25.995Z,30.60
2019-01-24T01:29:29.256Z,30.60
2019-01-24T01:32:32.505Z,30.60
2019-01-24T01:35:41.477Z,30.60
2019-01-24T01:38:44.742Z,30.60
2019-01-24T01:41:47.991Z,30.50
2019-01-24T01:44:51.254Z,30.60
2019-01-24T01:47:56.149Z,30.50
2019-01-24T01:51:00.298Z,30.50
2019-01-24T01:54:04.528Z,30.50
2019-01-24T01:57:07.777Z,30.60
2019-01-24T02:00:21.736Z,30.50
2019-01-24T02:03:25.985Z,30.60
2019-01-24T02:06:29.251Z,30.50
2019-01-24T02:09:32.522Z,30.50
2019-01-24T02:12:36.668Z,30.50
2019-01-24T02:15:41.810Z,30.50
2019-01-24T02:18:45.067Z,30.50
2019-01-24T02:21:50.257Z,30.50
2019-01-24T02:24:53.535Z,30.50
2019-01-24T02:27:56.786Z,30.50
2019-01-24T02:31:00.038Z,30.50
2019-01-24T02:34:03.355Z,30.50
2019-01-24T02:37:06.596Z,30.50
2019-01-24T02:40:10.202Z,30.50
2019-01-24T02:43:15.375Z,30.50
2019-01-24T02:46:18.650Z,30.50
2019-01-24T02:49:23.812Z,30.50
2019-01-24T02:52:30.954Z,30.40
2019-01-24T02:55:36.090Z,30.20
2019-01-24T02:58:39.358Z,30.30
2019-01-24T03:01:42.622Z,30.40
2019-01-24T03:04:45.888Z,30.50
2019-01-24T03:07:49.309Z,30.50
2019-01-24T03:10:52.583Z,30.40
2019-01-24T03:13:56.718Z,30.30
2019-01-24T03:17:01.865Z,30.40
2019-01-24T03:20:08.127Z,30.40
2019-01-24T03:23:11.381Z,30.30
2019-01-24T03:26:14.645Z,30.40
2019-01-24T03:29:19.882Z,30.30
2019-01-24T03:32:24.015Z,30.40
2019-01-24T03:35:27.275Z,30.30
2019-01-24T03:38:30.534Z,30.40
2019-01-24T03:41:33.810Z,30.30
2019-01-24T03:44:40.139Z,30.20
2019-01-24T03:47:45.365Z,30.40
2019-01-24T03:50:48.630Z,30.20
2019-01-24T03:53:51.888Z,30.40
2019-01-24T03:56:56.082Z,30.30
2019-01-24T03:59:59.348Z,30.30
2019-01-24T04:03:02.609Z,30.30
2019-01-24T04:06:06.831Z,30.30
2019-01-24T04:09:10.093Z,30.30
2019-01-24T04:12:13.368Z,30.20
2019-01-24T04:15:19.255Z,30.30
2019-01-24T04:18:24.473Z,30.20
2019-01-24T04:21:27.741Z,30.20
2019-01-24T04:24:31.018Z,30.30
2019-01-24T04:27:34.370Z,30.30
2019-01-24T04:30:37.640Z,30.20
2019-01-24T04:33:40.891Z,30.30
2019-01-24T04:36:46.100Z,30.30
2019-01-24T04:39:49.349Z,30.30
2019-01-24T04:42:52.605Z,30.30
2019-01-24T04:45:55.875Z,30.20
2019-01-24T04:48:59.155Z,30.30
2019-01-24T04:52:04.418Z,30.20
2019-01-24T04:55:10.139Z,30.20
2019-01-24T04:58:13.386Z,30.30
2019-01-24T05:01:17.591Z,30.20
2019-01-24T05:04:20.853Z,30.80
2019-01-24T05:07:24.114Z,30.20
2019-01-24T05:10:33.120Z,30.20
2019-01-24T05:13:36.375Z,30.20
2019-01-24T05:16:41.538Z,30.20
2019-01-24T05:19:45.851Z,30.20
2019-01-24T05:22:50.082Z,30.10
2019-01-24T05:25:54.236Z,30.10
2019-01-24T05:28:57.487Z,30.00
2019-01-24T05:32:00.744Z,30.10
2019-01-24T05:35:04.878Z,30.10
2019-01-24T05:38:09.113Z,30.10
2019-01-24T05:41:12.373Z,30.10
2019-01-24T05:44:16.523Z,30.10
2019-01-24T05:47:20.746Z,30.00
2019-01-24T05:50:24.562Z,30.10
2019-01-24T05:53:27.936Z,30.10
2019-01-24T05:56:31.254Z,30.00
2019-01-24T05:59:34.510Z,30.00
2019-01-24T06:02:37.771Z,30.00
2019-01-24T06:05:42.085Z,30.00
2019-01-24T06:08:46.271Z,30.00
2019-01-24T06:11:49.530Z,30.00
2019-01-24T06:14:52.800Z,30.00
2019-01-24T06:18:03.438Z,30.00
2019-01-24T06:21:06.706Z,30.00
2019-01-24T06:24:09.958Z,30.00
2019-01-24T06:27:13.220Z,30.10
2019-01-24T06:30:21.609Z,30.10
2019-01-24T06:33:24.878Z,30.10
2019-01-24T06:36:29.051Z,30.10
2019-01-24T06:39:32.315Z,30.00
2019-01-24T06:42:35.579Z,30.10
2019-01-24T06:45:39.636Z,30.00
2019-01-24T06:48:44.794Z,30.30
2019-01-24T06:51:49.010Z,30.10
2019-01-24T06:54:54.240Z,30.00
2019-01-24T06:57:57.505Z,30.00
2019-01-24T07:01:00.786Z,30.00
2019-01-24T07:04:04.039Z,30.00
2019-01-24T07:07:07.310Z,30.00
2019-01-24T07:10:18.861Z,29.90
2019-01-24T07:13:22.123Z,30.00
2019-01-24T07:16:25.393Z,30.00
2019-01-24T07:19:28.649Z,30.00
2019-01-24T07:22:31.931Z,30.00
2019-01-24T07:25:37.076Z,30.00
2019-01-24T07:28:42.292Z,30.10
2019-01-24T07:31:45.616Z,30.00
2019-01-24T07:34:48.897Z,30.00
2019-01-24T07:37:52.183Z,30.00
2019-01-24T07:40:55.433Z,30.00
2019-01-24T07:43:58.711Z,30.00
2019-01-24T07:47:01.994Z,30.00
2019-01-24T07:50:12.307Z,30.00
2019-01-24T07:53:16.643Z,30.00
2019-01-24T07:56:19.896Z,30.00
2019-01-24T07:59:23.170Z,30.00
2019-01-24T08:02:26.437Z,30.00
2019-01-24T08:05:31.623Z,30.00
2019-01-24T08:08:34.900Z,30.00
2019-01-24T08:11:40.114Z,30.20
2019-01-24T08:14:43.385Z,30.40
2019-01-24T08:17:46.660Z,30.50
2019-01-24T08:20:49.913Z,30.50
2019-01-24T08:23:54.106Z,30.60
2019-01-24T08:26:57.390Z,30.70
2019-01-24T08:30:01.715Z,30.60
2019-01-24T08:33:12.810Z,30.60
2019-01-24T08:36:16.084Z,30.50
2019-01-24T08:39:19.387Z,30.40
2019-01-24T08:42:22.654Z,30.50
2019-01-24T08:45:27.841Z,30.50
2019-01-24T08:48:31.129Z,30.50
2019-01-24T08:51:34.421Z,30.50
2019-01-24T08:54:37.719Z,30.60
2019-01-24T08:57:41.012Z,30.50
2019-01-24T09:00:45.310Z,30.50
2019-01-24T09:03:49.671Z,30.40
2019-01-24T09:06:53.977Z,30.40
2019-01-24T09:09:57.257Z,30.50
2019-01-24T09:13:00.563Z,30.40
2019-01-24T09:16:03.848Z,30.40
2019-01-24T09:19:07.161Z,30.40
2019-01-24T09:22:17.117Z,30.50
2019-01-24T09:25:20.442Z,30.50
2019-01-24T09:28:24.631Z,30.40
2019-01-24T09:31:27.937Z,30.40
2019-01-24T09:34:33.258Z,30.40
2019-01-24T09:37:36.554Z,30.50
2019-01-24T09:40:39.843Z,30.20
2019-01-24T09:43:43.143Z,31.00
2019-01-24T09:46:46.398Z,30.40
2019-01-24T09:49:52.602Z,30.40
2019-01-24T09:52:56.926Z,30.40
2019-01-24T09:56:00.212Z,30.40
2019-01-24T09:59:03.513Z,30.50
2019-01-24T10:02:13.554Z,30.50
2019-01-24T10:05:16.887Z,30.50
2019-01-24T10:08:20.168Z,30.50
2019-01-24T10:11:25.498Z,30.50
2019-01-24T10:14:29.826Z,30.50
2019-01-24T10:17:33.805Z,30.50
2019-01-24T10:20:37.069Z,30.50
2019-01-24T10:23:41.352Z,30.50
2019-01-24T10:26:54.030Z,30.50
2019-01-24T10:29:58.185Z,30.50
2019-01-24T10:33:01.485Z,30.50
2019-01-24T10:36:04.767Z,30.60
2019-01-24T10:39:09.243Z,30.50
2019-01-24T10:42:12.607Z,30.50
2019-01-24T10:45:18.155Z,30.40
2019-01-24T10:48:21.445Z,30.30
2019-01-24T10:51:27.802Z,30.30
2019-01-24T10:54:32.037Z,30.30
2019-01-24T10:57:35.309Z,30.30
2019-01-24T11:00:39.305Z,30.40
2019-01-24T11:03:42.644Z,30.40
2019-01-24T11:06:51.771Z,30.30
2019-01-24T11:09:55.997Z,30.20
2019-01-24T11:12:59.293Z,30.40
2019-01-24T11:16:02.594Z,30.30
2019-01-24T11:19:06.909Z,30.40
2019-01-24T11:22:10.198Z,30.40
2019-01-24T11:25:17.106Z,30.40
2019-01-24T11:28:27.464Z,30.30
2019-01-24T11:31:30.926Z,30.40
2019-01-24T11:34:41.018Z,30.40
2019-01-24T11:37:44.296Z,30.50
2019-01-24T11:40:47.598Z,30.50
2019-01-24T11:43:50.869Z,30.40
2019-01-24T11:46:54.165Z,30.40
2019-01-24T11:49:57.473Z,30.50
2019-01-24T11:53:01.777Z,30.70
2019-01-24T11:56:11.845Z,30.50
2019-01-24T11:59:16.165Z,30.50
2019-01-24T12:02:20.473Z,30.40
2019-01-24T12:05:23.794Z,30.40
2019-01-24T12:08:28.094Z,30.50
2019-01-24T12:11:31.389Z,30.40
2019-01-24T12:14:34.692Z,30.50
2019-01-24T12:17:37.980Z,30.50
2019-01-24T12:20:43.129Z,30.50
2019-01-24T12:23:46.435Z,30.50
2019-01-24T12:26:49.707Z,30.50
2019-01-24T12:29:54.042Z,30.50
2019-01-24T12:32:57.764Z,30.50
2019-01-24T12:36:01.045Z,30.50
2019-01-24T12:39:06.856Z,30.50
2019-01-24T12:42:10.107Z,30.60
2019-01-24T12:45:16.028Z,30.60
2019-01-24T12:48:21.199Z,30.60
2019-01-24T12:51:25.520Z,30.60
2019-01-24T12:54:35.563Z,30.50
2019-01-24T12:57:38.855Z,30.60
2019-01-24T13:00:43.969Z,30.60
2019-01-24T13:03:47.312Z,30.60
2019-01-24T13:06:50.575Z,30.60
2019-01-24T13:09:53.942Z,30.90
2019-01-24T13:12:58.220Z,30.60
2019-01-24T13:16:01.516Z,30.60
2019-01-24T13:19:04.798Z,30.60
2019-01-24T13:22:08.089Z,30.60
2019-01-24T13:25:14.666Z,30.60
2019-01-24T13:28:17.959Z,30.70
2019-01-24T13:31:21.274Z,30.70
2019-01-24T13:34:25.587Z,30.70
2019-01-24T13:37:29.891Z,30.60
2019-01-24T13:40:33.207Z,30.70
2019-01-24T13:43:38.539Z,30.70
2019-01-24T13:46:41.862Z,30.70
2019-01-24T13:49:45.233Z,30.90
2019-01-24T13:52:50.474Z,30.70
2019-01-24T13:55:55.843Z,30.80
2019-01-24T13:59:01.785Z,30.70
2019-01-24T14:02:06.129Z,30.70
2019-01-24T14:05:12.774Z,30.70
2019-01-24T14:08:16.100Z,30.80
2019-01-24T14:11:20.343Z,30.80
2019-01-24T14:14:23.909Z,30.80
2019-01-24T14:17:28.102Z,30.80
2019-01-24T14:20:31.410Z,30.80
2019-01-24T14:23:41.460Z,30.80
2019-01-24T14:26:46.810Z,30.80
2019-01-24T14:29:50.106Z,30.80
2019-01-24T14:32:53.453Z,30.80
2019-01-24T14:35:56.721Z,30.80
2019-01-24T14:39:00.003Z,30.80
2019-01-24T14:42:03.298Z,30.90
2019-01-24T14:45:22.398Z,30.80
2019-01-24T14:48:26.680Z,30.80
2019-01-24T14:51:29.970Z,30.80
2019-01-24T14:54:33.254Z,30.80
2019-01-24T14:57:36.571Z,30.80
2019-01-24T15:00:45.616Z,30.90
2019-01-24T15:03:48.903Z,30.80
2019-01-24T15:06:53.210Z,30.90
2019-01-24T15:09:56.498Z,30.90
2019-01-24T15:12:59.819Z,30.90
2019-01-24T15:16:08.860Z,30.90
2019-01-24T15:19:18.902Z,30.90
2019-01-24T15:22:22.203Z,31.00
2019-01-24T15:25:31.238Z,30.90
2019-01-24T15:28:34.539Z,30.90
2019-01-24T15:31:37.822Z,30.90
2019-01-24T15:34:41.094Z,31.00
2019-01-24T15:37:44.403Z,30.90
2019-01-24T15:40:49.737Z,30.90
2019-01-24T15:43:53.052Z,31.00
2019-01-24T15:46:56.355Z,30.90
2019-01-24T15:49:59.620Z,31.00
2019-01-24T15:53:05.585Z,31.00
2019-01-24T15:56:08.890Z,30.90
2019-01-24T15:59:19.961Z,30.90
2019-01-24T16:02:24.306Z,31.00
2019-01-24T16:05:31.295Z,31.00
2019-01-24T16:08:34.545Z,31.00
2019-01-24T16:11:38.911Z,31.00
2019-01-24T16:14:44.216Z,31.00
2019-01-24T16:17:47.551Z,31.00
2019-01-24T16:20:52.990Z,31.10
2019-01-24T16:23:56.398Z,31.00
2019-01-24T16:27:00.697Z,31.00
2019-01-24T16:30:06.789Z,31.00
2019-01-24T16:33:10.062Z,31.00
2019-01-24T16:36:13.374Z,31.00
2019-01-24T16:39:16.628Z,31.00
2019-01-24T16:42:19.895Z,31.00
2019-01-24T16:45:27.947Z,30.90
2019-01-24T16:48:31.206Z,31.00
2019-01-24T16:51:34.487Z,31.00
2019-01-24T16:54:37.746Z,31.00
2019-01-24T16:57:42.042Z,31.00
2019-01-24T17:00:46.814Z,31.00
2019-01-24T17:03:50.089Z,30.90
2019-01-24T17:06:55.423Z,31.00
2019-01-24T17:09:58.681Z,30.90
2019-01-24T17:13:02.033Z,30.90
2019-01-24T17:16:05.310Z,30.90
2019-01-24T17:19:09.671Z,31.00
2019-01-24T17:22:12.922Z,30.90
2019-01-24T17:25:17.641Z,31.10
2019-01-24T17:28:21.971Z,31.00
2019-01-24T17:31:25.264Z,31.00
2019-01-24T17:34:32.454Z,31.00
2019-01-24T17:37:41.510Z,31.00
2019-01-24T17:40:44.827Z,31.00
2019-01-24T17:43:50.188Z,31.10
2019-01-24T17:46:53.474Z,31.10
2019-01-24T17:50:00.812Z,31.10
2019-01-24T17:53:04.123Z,31.00
2019-01-24T17:56:07.423Z,31.10
2019-01-24T17:59:10.710Z,31.00
2019-01-24T18:02:18.915Z,31.00
2019-01-24T18:05:22.312Z,31.10
2019-01-24T18:08:31.178Z,31.00
2019-01-24T18:11:30.697Z,31.10
2019-01-24T18:14:34.966Z,31.10
2019-01-24T18:17:38.275Z,31.10
2019-01-24T18:20:41.607Z,31.10
2019-01-24T18:23:45.882Z,31.10
2019-01-24T18:26:49.174Z,31.10
2019-01-24T18:30:01.279Z,31.10
2019-01-24T18:33:04.651Z,31.10
2019-01-24T18:36:08.902Z,31.10
2019-01-24T18:39:15.278Z,31.00
2019-01-24T18:42:20.627Z,31.00
2019-01-24T18:45:28.125Z,31.00
2019-01-24T18:48:33.358Z,31.00
2019-01-24T18:51:36.653Z,31.00
2019-01-24T18:54:39.940Z,31.00
2019-01-24T18:57:43.235Z,31.00
2019-01-24T19:00:53.301Z,31.00
2019-01-24T19:03:56.628Z,31.00
2019-01-24T19:07:00.902Z,31.00
2019-01-24T19:10:06.540Z,31.00
2019-01-24T19:13:09.810Z,31.00
2019-01-24T19:16:14.067Z,31.00
2019-01-24T19:19:17.374Z,31.00
2019-01-24T19:22:23.753Z,31.00
2019-01-24T19:25:29.090Z,31.00
2019-01-24T19:28:32.398Z,31.00
2019-01-24T19:31:35.674Z,31.00
2019-01-24T19:34:42.059Z,31.00
2019-01-24T19:37:47.384Z,31.00
2019-01-24T19:40:51.725Z,31.00
2019-01-24T19:43:57.630Z,31.10
2019-01-24T19:47:02.820Z,31.10
2019-01-24T19:50:11.341Z,31.20
2019-01-24T19:53:14.621Z,31.20
2019-01-24T19:56:23.550Z,31.20
2019-01-24T19:59:26.856Z,31.20
2019-01-24T20:02:30.155Z,31.20
2019-01-24T20:05:33.441Z,31.20
2019-01-24T20:08:36.738Z,31.20
2019-01-24T20:11:39.997Z,31.20
2019-01-24T20:14:43.335Z,31.20
2019-01-24T20:17:47.674Z,31.20
2019-01-24T20:20:50.942Z,31.50
2019-01-24T20:23:54.242Z,31.50
2019-01-24T20:26:57.527Z,31.50
2019-01-24T20:30:06.810Z,31.40
2019-01-24T20:33:10.078Z,31.40
2019-01-24T20:36:13.362Z,31.40
2019-01-24T20:39:19.736Z,31.30
2019-01-24T20:42:23.043Z,31.10
2019-01-24T20:45:26.364Z,31.30
2019-01-24T20:48:29.625Z,31.30
2019-01-24T20:51:32.906Z,31.40
2019-01-24T20:54:36.205Z,31.30
2019-01-24T20:57:40.528Z,31.30
2019-01-24T21:00:43.785Z,31.30
2019-01-24T21:03:47.042Z,31.30
2019-01-24T21:06:52.249Z,31.30
2019-01-24T21:09:55.505Z,31.30
2019-01-24T21:12:58.874Z,31.30
2019-01-24T21:16:02.144Z,31.20
2019-01-24T21:19:07.308Z,31.20
2019-01-24T21:22:14.470Z,31.30
2019-01-24T21:25:24.157Z,31.30
2019-01-24T21:28:29.466Z,31.30
2019-01-24T21:31:32.765Z,31.40
2019-01-24T21:34:38.114Z,31.30
2019-01-24T21:37:42.330Z,31.40
2019-01-24T21:40:45.590Z,31.40
2019-01-24T21:43:48.858Z,31.40
2019-01-24T21:46:52.116Z,31.40
2019-01-24T21:49:55.405Z,31.50
2019-01-24T21:52:58.683Z,31.40
2019-01-24T21:56:02.001Z,31.40
2019-01-24T21:59:05.258Z,31.40
2019-01-24T22:02:08.512Z,31.50
2019-01-24T22:05:12.798Z,31.40
2019-01-24T22:08:25.273Z,31.40
2019-01-24T22:11:29.534Z,31.40
2019-01-24T22:14:33.883Z,31.40
2019-01-24T22:17:42.887Z,31.40
2019-01-24T22:20:46.195Z,31.50
2019-01-24T22:23:49.458Z,31.40
2019-01-24T22:26:53.593Z,31.40
2019-01-24T22:29:59.959Z,31.40
2019-01-24T22:33:10.024Z,31.40
2019-01-24T22:36:14.681Z,31.40
2019-01-24T22:39:19.883Z,31.40
2019-01-24T22:42:24.198Z,31.40
2019-01-24T22:45:27.729Z,31.40
2019-01-24T22:48:31.014Z,31.40
2019-01-24T22:51:36.354Z,31.40
2019-01-24T22:54:39.655Z,31.40
2019-01-24T22:57:43.964Z,31.40
2019-01-24T23:00:53.480Z,31.40
2019-01-24T23:03:56.736Z,31.30
2019-01-24T23:07:00.012Z,31.40
2019-01-24T23:10:08.554Z,31.40
2019-01-24T23:13:11.822Z,31.40
2019-01-24T23:16:15.081Z,31.40
2019-01-24T23:19:18.349Z,31.30
2019-01-24T23:22:22.518Z,31.40
2019-01-24T23:25:27.768Z,31.40
2019-01-24T23:28:31.046Z,31.40
2019-01-24T23:31:36.192Z,31.40
2019-01-24T23:34:40.514Z,31.40
2019-01-24T23:37:43.816Z,31.40
2019-01-24T23:40:50.994Z,32.10
2019-01-24T23:43:55.218Z,31.40
2019-01-24T23:46:59.432Z,31.40
2019-01-24T23:50:02.746Z,31.40
2019-01-24T23:53:06.033Z,31.40
2019-01-24T23:56:09.324Z,31.40
2019-01-24T23:59:12.670Z,31.40
